createdAt,value
2019-02-12T00:04:34.654Z,2.73
2019-02-12T00:09:38.681Z,2.68
2019-02-12T00:14:42.725Z,2.53
2019-02-12T00:19:46.731Z,2.65
2019-02-12T00:24:50.746Z,2.69
2019-02-12T00:29:54.730Z,2.62
2019-02-12T00:34:58.758Z,2.67
2019-02-12T00:40:02.755Z,2.62
2019-02-12T00:45:06.821Z,2.67
2019-02-12T00:50:10.875Z,2.60
2019-02-12T00:55:14.896Z,2.63
2019-02-12T01:00:18.881Z,2.55
2019-02-12T01:05:22.879Z,2.52
2019-02-12T01:10:26.905Z,2.42
2019-02-12T01:15:30.911Z,2.35
2019-02-12T01:20:34.914Z,2.42
2019-02-12T01:25:38.919Z,2.43
2019-02-12T01:30:42.936Z,2.42
2019-02-12T01:35:46.937Z,2.47
2019-02-12T01:40:50.922Z,2.50
2019-02-12T01:45:54.920Z,2.40
2019-02-12T01:50:58.930Z,2.46
2019-02-12T01:56:02.965Z,2.44
2019-02-12T02:01:06.992Z,2.42
2019-02-12T02:06:10.987Z,2.52
2019-02-12T02:11:15.035Z,2.54
2019-02-12T02:16:18.982Z,2.55
2019-02-12T02:21:23.009Z,2.52
2019-02-12T02:26:27.062Z,2.56
2019-02-12T02:31:31.069Z,2.65
2019-02-12T02:36:35.077Z,2.59
2019-02-12T02:41:39.093Z,2.60
2019-02-12T02:46:43.161Z,2.65
2019-02-12T02:51:53.709Z,2.65
2019-02-12T02:56:52.892Z,2.60
2019-02-12T03:01:56.879Z,2.51
2019-02-12T03:07:00.881Z,2.61
2019-02-12T03:12:04.878Z,2.55
2019-02-12T03:17:08.926Z,2.56
2019-02-12T03:22:12.899Z,2.51
2019-02-12T03:27:16.906Z,2.48
2019-02-12T03:32:20.924Z,2.47
2019-02-12T03:37:24.911Z,2.34
2019-02-12T03:42:28.902Z,2.21
2019-02-12T03:47:32.937Z,2.11
2019-02-12T03:52:36.931Z,2.13
2019-02-12T03:57:40.926Z,2.10
2019-02-12T04:03:02.057Z,2.07
2019-02-12T04:08:06.510Z,2.03
2019-02-12T04:13:10.485Z,2.10
2019-02-12T04:18:14.480Z,2.08
2019-02-12T04:23:18.486Z,2.06
2019-02-12T04:28:23.350Z,2.08
2019-02-12T04:33:27.360Z,2.01
2019-02-12T04:38:31.377Z,2.04
2019-02-12T04:43:35.378Z,2.07
2019-02-12T04:48:39.409Z,2.12
2019-02-12T04:53:43.437Z,2.12
2019-02-12T04:58:47.452Z,2.11
2019-02-12T05:03:51.456Z,2.07
2019-02-12T05:09:27.331Z,2.07
2019-02-12T05:14:31.333Z,2.09
2019-02-12T05:25:27.757Z,2.17
2019-02-12T05:30:31.769Z,2.17
2019-02-12T05:35:38.532Z,2.09
2019-02-12T05:40:42.521Z,2.13
2019-02-12T05:45:46.524Z,2.12
2019-02-12T05:50:50.537Z,2.17
2019-02-12T05:55:54.518Z,2.24
2019-02-12T06:00:58.510Z,2.35
2019-02-12T06:06:02.530Z,2.32
2019-02-12T06:11:06.546Z,2.41
2019-02-12T06:16:16.060Z,2.44
2019-02-12T06:21:20.081Z,2.52
2019-02-12T06:26:24.148Z,2.53
2019-02-12T06:31:28.143Z,2.56
2019-02-12T06:36:32.133Z,2.59
2019-02-12T06:41:36.229Z,2.48
2019-02-12T06:46:40.226Z,2.47
2019-02-12T06:51:44.233Z,2.46
2019-02-12T06:56:48.255Z,2.48
2019-02-12T07:01:53.825Z,2.41
2019-02-12T07:07:47.645Z,2.54
2019-02-12T07:13:51.235Z,2.61
2019-02-12T07:19:36.735Z,2.66
2019-02-12T07:25:26.657Z,2.72
2019-02-12T07:31:18.161Z,2.69
2019-02-12T07:36:47.010Z,2.74
2019-02-12T07:42:15.757Z,2.73
2019-02-12T07:47:55.819Z,2.85
2019-02-12T07:53:30.830Z,2.91
2019-02-12T07:58:46.984Z,2.81
2019-02-12T08:04:47.266Z,2.96
2019-02-12T08:10:41.938Z,2.91
2019-02-12T08:16:27.057Z,2.94
2019-02-12T08:21:44.070Z,2.97
2019-02-12T08:27:19.565Z,2.85
2019-02-12T08:33:22.599Z,2.95
2019-02-12T08:39:10.297Z,2.81
2019-02-12T08:44:32.057Z,2.80
2019-02-12T08:50:01.042Z,2.90
2019-02-12T08:55:58.184Z,3.40
2019-02-12T09:01:34.162Z,3.26
2019-02-12T09:07:37.639Z,3.43
2019-02-12T09:13:07.237Z,3.67
2019-02-12T09:18:42.018Z,3.95
2019-02-12T09:24:28.835Z,4.01
2019-02-12T09:29:47.234Z,4.14
2019-02-12T09:35:30.043Z,4.09
2019-02-12T09:40:57.775Z,4.08
2019-02-12T09:46:48.765Z,4.40
2019-02-12T09:52:19.933Z,4.40
2019-02-12T09:57:53.633Z,4.36
2019-02-12T10:03:41.961Z,5.04
2019-02-12T10:09:20.997Z,4.50
2019-02-12T10:14:51.688Z,4.79
2019-02-12T10:20:27.969Z,5.93
2019-02-12T10:25:38.170Z,5.71
2019-02-12T10:31:08.855Z,6.29
2019-02-12T10:36:12.862Z,6.09
2019-02-12T10:41:16.889Z,8.02
2019-02-12T10:46:20.890Z,7.17
2019-02-12T10:51:24.889Z,6.07
2019-02-12T10:56:28.906Z,6.44
2019-02-12T11:01:32.909Z,5.58
2019-02-12T11:06:36.916Z,10.21
2019-02-12T11:11:41.885Z,7.32
2019-02-12T11:16:45.874Z,7.38
2019-02-12T11:21:49.918Z,6.28
2019-02-12T11:26:53.867Z,6.29
2019-02-12T11:31:57.878Z,8.55
2019-02-12T11:37:01.895Z,6.01
2019-02-12T11:42:05.974Z,5.40
2019-02-12T11:47:10.004Z,7.10
2019-02-12T11:52:14.019Z,10.68
2019-02-12T11:57:18.015Z,8.72
2019-02-12T12:02:23.979Z,6.79
2019-02-12T12:07:28.050Z,5.85
2019-02-12T12:12:32.039Z,9.44
2019-02-12T12:17:36.052Z,10.06
2019-02-12T12:22:40.057Z,12.31
2019-02-12T12:27:44.060Z,12.73
2019-02-12T12:32:48.065Z,11.02
2019-02-12T12:37:52.076Z,11.62
2019-02-12T12:42:56.092Z,12.17
2019-02-12T12:48:00.084Z,11.31
2019-02-12T12:53:04.163Z,10.15
2019-02-12T12:58:08.107Z,7.55
2019-02-12T13:03:13.451Z,5.87
2019-02-12T13:08:17.599Z,5.78
2019-02-12T13:13:21.653Z,8.90
2019-02-12T13:18:25.669Z,7.42
2019-02-12T13:23:29.663Z,5.85
2019-02-12T13:28:33.705Z,5.70
2019-02-12T13:33:37.697Z,5.86
2019-02-12T13:38:41.714Z,6.24
2019-02-12T13:43:45.816Z,6.22
2019-02-12T13:48:50.036Z,6.21
2019-02-12T13:53:54.032Z,5.80
2019-02-12T13:58:58.323Z,5.99
2019-02-12T14:04:03.737Z,5.83
2019-02-12T14:09:08.206Z,5.76
2019-02-12T14:14:12.208Z,5.68
2019-02-12T14:19:16.352Z,5.86
2019-02-12T14:24:20.375Z,5.58
2019-02-12T14:29:24.384Z,5.67
2019-02-12T14:34:28.410Z,5.47
2019-02-12T14:39:32.392Z,5.60
2019-02-12T14:44:36.419Z,5.70
2019-02-12T14:49:40.438Z,5.82
2019-02-12T14:54:44.469Z,5.83
2019-02-12T14:59:48.471Z,5.50
2019-02-12T15:05:00.417Z,5.46
2019-02-12T15:09:59.988Z,5.30
2019-02-12T15:15:04.391Z,5.24
2019-02-12T15:20:08.865Z,5.08
2019-02-12T15:25:12.914Z,5.16
2019-02-12T15:30:16.929Z,5.00
2019-02-12T15:35:20.930Z,5.05
2019-02-12T15:40:24.972Z,4.98
2019-02-12T15:45:28.983Z,4.97
2019-02-12T15:50:32.996Z,4.82
2019-02-12T15:55:42.146Z,4.78
2019-02-12T16:00:43.443Z,4.59
2019-02-12T16:05:47.538Z,4.73
2019-02-12T16:10:51.560Z,4.61
2019-02-12T16:15:55.556Z,4.63
2019-02-12T16:20:59.571Z,4.51
2019-02-12T16:26:03.816Z,4.47
2019-02-12T16:31:07.842Z,4.50
2019-02-12T16:36:11.825Z,4.48
2019-02-12T16:41:15.852Z,4.35
2019-02-12T16:46:23.232Z,4.30
2019-02-12T16:51:27.415Z,4.29
2019-02-12T16:56:31.426Z,4.30
2019-02-12T17:01:35.611Z,4.21
2019-02-12T17:06:39.611Z,4.22
2019-02-12T17:11:43.654Z,4.33
2019-02-12T17:16:47.809Z,4.24
2019-02-12T17:21:51.793Z,4.31
2019-02-12T17:26:55.819Z,4.23
2019-02-12T17:31:59.842Z,4.15
2019-02-12T17:37:04.891Z,4.07
2019-02-12T17:42:08.936Z,4.01
2019-02-12T17:47:12.967Z,3.92
2019-02-12T17:52:16.980Z,3.98
2019-02-12T17:57:21.006Z,3.96
2019-02-12T18:02:25.021Z,3.85
2019-02-12T18:07:29.018Z,3.84
2019-02-12T18:12:33.045Z,3.80
2019-02-12T18:17:37.083Z,3.82
2019-02-12T18:22:41.144Z,3.75
2019-02-12T18:27:45.177Z,3.79
2019-02-12T18:32:49.195Z,3.75
2019-02-12T18:37:53.243Z,3.78
2019-02-12T18:42:57.303Z,3.74
2019-02-12T18:48:01.292Z,3.81
2019-02-12T18:53:05.283Z,3.76
2019-02-12T18:58:09.353Z,3.74
2019-02-12T19:03:13.393Z,3.75
2019-02-12T19:08:17.439Z,3.82
2019-02-12T19:13:21.500Z,3.82
2019-02-12T19:18:27.026Z,4.02
2019-02-12T19:23:31.048Z,4.12
2019-02-12T19:28:35.073Z,4.07
2019-02-12T19:33:39.185Z,4.07
2019-02-12T19:38:43.199Z,4.06
2019-02-12T19:43:47.232Z,4.04
2019-02-12T19:48:51.505Z,4.01
2019-02-12T19:53:55.639Z,3.98
2019-02-12T19:58:59.761Z,3.78
2019-02-12T20:04:03.890Z,3.72
2019-02-12T20:09:14.183Z,3.79
2019-02-12T20:14:18.407Z,3.74
2019-02-12T20:19:23.165Z,3.66
2019-02-12T20:24:27.846Z,3.61
2019-02-12T20:29:32.573Z,3.68
2019-02-12T20:34:37.517Z,3.57
2019-02-12T20:39:42.015Z,3.45
2019-02-12T20:44:48.478Z,3.53
2019-02-12T20:49:52.782Z,3.54
2019-02-12T20:54:57.058Z,3.70
2019-02-12T21:00:01.267Z,3.72
2019-02-12T21:05:05.873Z,3.68
2019-02-12T21:10:11.701Z,3.68
2019-02-12T21:15:17.941Z,3.65
2019-02-12T21:20:22.014Z,3.67
2019-02-12T21:25:26.042Z,3.72
2019-02-12T21:30:30.145Z,3.71
2019-02-12T21:35:34.171Z,3.65
2019-02-12T21:40:38.187Z,3.59
2019-02-12T21:45:42.203Z,3.61
2019-02-12T21:50:46.210Z,3.71
2019-02-12T21:55:50.289Z,3.68
2019-02-12T22:00:54.290Z,3.69
2019-02-12T22:05:58.290Z,3.70
2019-02-12T22:11:02.298Z,3.54
2019-02-12T22:16:06.298Z,3.68
2019-02-12T22:21:11.902Z,3.75
2019-02-12T22:26:15.892Z,3.76
2019-02-12T22:31:19.899Z,3.83
2019-02-12T22:36:23.899Z,3.90
2019-02-12T22:41:27.889Z,3.88
2019-02-12T22:46:31.903Z,3.83
2019-02-12T22:51:35.919Z,3.86
2019-02-12T22:56:39.915Z,3.93
2019-02-12T23:01:43.930Z,3.87
2019-02-12T23:06:47.924Z,3.92
2019-02-12T23:11:52.096Z,3.94
2019-02-12T23:16:56.075Z,4.02
2019-02-12T23:22:00.066Z,4.07
2019-02-12T23:27:04.091Z,4.16
2019-02-12T23:32:08.074Z,4.21
2019-02-12T23:37:12.079Z,4.20
2019-02-12T23:42:16.094Z,4.20
2019-02-12T23:47:20.098Z,4.23
2019-02-12T23:52:24.189Z,4.17
2019-02-12T23:57:28.180Z,4.07
